createdAt,value
2022-12-15T00:00:45.737Z,-2.15
2022-12-15T00:03:32.112Z,-2.18
2022-12-15T00:06:19.425Z,-2.18
2022-12-15T00:09:07.533Z,-2.19
2022-12-15T00:11:57.307Z,-2.20
2022-12-15T00:14:43.081Z,-2.18
2022-12-15T00:17:30.604Z,-2.17
2022-12-15T00:20:16.715Z,-2.18
2022-12-15T00:23:02.926Z,-2.19
2022-12-15T00:25:49.068Z,-2.21
2022-12-15T00:28:35.231Z,-2.23
2022-12-15T00:31:21.760Z,-2.26
2022-12-15T00:34:09.667Z,-2.30
2022-12-15T00:36:55.136Z,-2.32
2022-12-15T00:39:23.950Z,-2.35
2022-12-15T00:41:52.371Z,-2.36
2022-12-15T00:44:21.420Z,-2.37
2022-12-15T00:46:57.576Z,-2.38
2022-12-15T00:49:47.262Z,-2.42
2022-12-15T00:52:34.889Z,-2.42
2022-12-15T00:55:21.028Z,-2.43
2022-12-15T00:58:07.269Z,-2.44
2022-12-15T01:00:53.581Z,-2.44
2022-12-15T01:03:42.418Z,-2.40
2022-12-15T01:06:31.889Z,-2.40
2022-12-15T01:09:18.072Z,-2.39
2022-12-15T01:12:04.406Z,-2.40
2022-12-15T01:14:51.778Z,-2.43
2022-12-15T01:17:37.944Z,-2.46
2022-12-15T01:20:33.108Z,-2.49
2022-12-15T01:23:04.422Z,-2.56
2022-12-15T01:25:33.312Z,-2.61
2022-12-15T01:28:02.214Z,-2.64
2022-12-15T01:30:30.911Z,-2.68
2022-12-15T01:32:59.805Z,-2.70
2022-12-15T01:35:29.317Z,-2.75
2022-12-15T01:37:57.754Z,-2.80
2022-12-15T01:40:44.708Z,-2.84
2022-12-15T01:43:15.328Z,-2.85
2022-12-15T01:45:58.010Z,-2.85
2022-12-15T01:48:35.831Z,-2.85
2022-12-15T01:51:12.494Z,-2.84
2022-12-15T01:53:45.676Z,-2.85
2022-12-15T01:56:21.389Z,-2.85
2022-12-15T01:58:52.764Z,-2.85
2022-12-15T02:01:21.776Z,-2.86
2022-12-15T02:03:50.611Z,-2.88
2022-12-15T02:06:23.157Z,-2.88
2022-12-15T02:08:53.874Z,-2.88
2022-12-15T02:11:51.547Z,-2.89
2022-12-15T02:14:29.722Z,-2.91
2022-12-15T02:17:13.913Z,-2.91
2022-12-15T02:20:21.080Z,-2.95
2022-12-15T02:23:12.387Z,-2.99
2022-12-15T02:26:07.198Z,-3.04
2022-12-15T02:28:50.290Z,-3.09
2022-12-15T02:31:41.975Z,-3.11
2022-12-15T02:34:17.198Z,-3.15
2022-12-15T02:36:48.983Z,-3.20
2022-12-15T02:39:19.985Z,-3.20
2022-12-15T02:41:49.337Z,-3.24
2022-12-15T02:44:22.704Z,-3.26
2022-12-15T02:47:13.370Z,-3.29
2022-12-15T02:49:55.284Z,-3.32
2022-12-15T02:52:36.990Z,-3.29
2022-12-15T02:55:16.694Z,-3.31
2022-12-15T02:57:54.766Z,-3.34
2022-12-15T03:00:24.167Z,-3.35
2022-12-15T03:02:57.125Z,-3.36
2022-12-15T03:05:27.497Z,-3.38
2022-12-15T03:07:56.126Z,-3.40
2022-12-15T03:10:27.826Z,-3.39
2022-12-15T03:12:56.358Z,-3.39
2022-12-15T03:15:24.770Z,-3.39
2022-12-15T03:17:54.837Z,-3.39
2022-12-15T03:20:23.424Z,-3.40
2022-12-15T03:22:52.077Z,-3.43
2022-12-15T03:25:20.814Z,-3.41
2022-12-15T03:27:49.955Z,-3.43
2022-12-15T03:30:18.643Z,-3.44
2022-12-15T03:32:47.004Z,-3.46
2022-12-15T03:35:16.994Z,-3.46
2022-12-15T03:37:45.448Z,-3.48
2022-12-15T03:40:15.228Z,-3.49
2022-12-15T03:42:53.204Z,-3.50
2022-12-15T03:45:23.615Z,-3.53
2022-12-15T03:47:53.173Z,-3.53
2022-12-15T03:50:25.798Z,-3.51
2022-12-15T03:52:56.061Z,-3.52
2022-12-15T03:55:25.090Z,-3.52
2022-12-15T03:57:54.294Z,-3.45
2022-12-15T04:00:24.771Z,-3.45
2022-12-15T04:02:54.068Z,-3.42
2022-12-15T04:05:27.089Z,-3.42
2022-12-15T04:07:56.228Z,-3.38
2022-12-15T04:10:31.921Z,-3.36
2022-12-15T04:13:08.242Z,-3.35
2022-12-15T04:15:37.587Z,-3.34
2022-12-15T04:18:09.530Z,-3.33
2022-12-15T04:20:40.362Z,-3.34
2022-12-15T04:23:09.457Z,-3.36
2022-12-15T04:25:56.719Z,-3.38
2022-12-15T04:28:43.829Z,-3.38
2022-12-15T04:31:32.029Z,-3.35
2022-12-15T04:34:21.365Z,-3.32
2022-12-15T04:37:11.781Z,-3.33
2022-12-15T04:40:01.916Z,-3.30
2022-12-15T04:42:49.940Z,-3.30
2022-12-15T04:45:37.557Z,-3.28
2022-12-15T04:48:24.417Z,-3.31
2022-12-15T04:51:10.073Z,-3.33
2022-12-15T04:53:57.482Z,-3.35
2022-12-15T04:56:43.640Z,-3.36
2022-12-15T04:59:29.428Z,-3.37
2022-12-15T05:02:15.787Z,-3.38
2022-12-15T05:05:01.910Z,-3.36
2022-12-15T05:07:47.607Z,-3.37
2022-12-15T05:10:35.046Z,-3.39
2022-12-15T05:13:25.319Z,-3.37
2022-12-15T05:16:11.812Z,-3.38
2022-12-15T05:18:57.630Z,-3.39
2022-12-15T05:21:43.410Z,-3.41
2022-12-15T05:24:29.024Z,-3.43
2022-12-15T05:27:16.410Z,-3.48
2022-12-15T05:30:02.139Z,-3.50
2022-12-15T05:32:33.599Z,-3.52
2022-12-15T05:35:02.674Z,-3.55
2022-12-15T05:37:31.085Z,-3.57
2022-12-15T05:39:59.420Z,-3.60
2022-12-15T05:42:29.308Z,-3.58
2022-12-15T05:44:58.010Z,-3.51
2022-12-15T05:47:26.761Z,-3.49
2022-12-15T05:49:55.583Z,-3.50
2022-12-15T05:52:24.245Z,-3.49
2022-12-15T05:54:52.572Z,-3.48
2022-12-15T05:57:21.002Z,-3.49
2022-12-15T05:59:50.809Z,-3.46
2022-12-15T06:02:20.554Z,-3.46
2022-12-15T06:04:49.281Z,-3.45
2022-12-15T06:07:17.887Z,-3.43
2022-12-15T06:09:46.815Z,-3.43
2022-12-15T06:12:15.346Z,-3.42
2022-12-15T06:14:43.949Z,-3.47
2022-12-15T06:17:13.900Z,-3.49
2022-12-15T06:19:42.651Z,-3.50
2022-12-15T06:22:11.237Z,-3.49
2022-12-15T06:24:39.805Z,-3.50
2022-12-15T06:27:09.554Z,-3.49
2022-12-15T06:29:37.986Z,-3.49
2022-12-15T06:32:06.604Z,-3.51
2022-12-15T06:34:37.716Z,-3.49
2022-12-15T06:37:06.227Z,-3.48
2022-12-15T06:39:34.684Z,-3.52
2022-12-15T06:42:02.990Z,-3.53
2022-12-15T06:44:31.485Z,-3.55
2022-12-15T06:47:00.263Z,-3.52
2022-12-15T06:49:29.174Z,-3.47
2022-12-15T06:51:59.091Z,-3.46
2022-12-15T06:54:28.511Z,-3.50
2022-12-15T06:56:57.010Z,-3.50
2022-12-15T06:59:25.380Z,-3.48
2022-12-15T07:01:54.171Z,-3.51
2022-12-15T07:04:22.744Z,-3.55
2022-12-15T07:06:51.338Z,-3.58
2022-12-15T07:09:21.732Z,-3.62
2022-12-15T07:11:51.518Z,-3.64
2022-12-15T07:14:20.241Z,-3.68
2022-12-15T07:16:48.559Z,-3.71
2022-12-15T07:19:17.009Z,-3.73
2022-12-15T07:21:46.722Z,-3.76
2022-12-15T07:24:16.510Z,-3.74
2022-12-15T07:26:49.757Z,-3.73
2022-12-15T07:29:23.411Z,-3.70
2022-12-15T07:31:52.932Z,-3.67
2022-12-15T07:34:21.631Z,-3.66
2022-12-15T07:36:52.612Z,-3.64
2022-12-15T07:39:24.825Z,-3.58
2022-12-15T07:41:54.790Z,-3.58
2022-12-15T07:44:32.095Z,-3.61
2022-12-15T07:47:01.782Z,-3.66
2022-12-15T07:49:30.784Z,-3.67
2022-12-15T07:51:59.372Z,-3.65
2022-12-15T07:54:29.448Z,-3.68
2022-12-15T07:57:00.155Z,-3.70
2022-12-15T07:59:31.051Z,-3.67
2022-12-15T08:02:17.995Z,-3.64
2022-12-15T08:04:46.467Z,-3.64
2022-12-15T08:07:18.242Z,-3.65
2022-12-15T08:09:48.590Z,-3.65
2022-12-15T08:12:19.466Z,-3.66
2022-12-15T08:14:56.383Z,-3.66
2022-12-15T08:17:25.244Z,-3.68
2022-12-15T08:19:58.722Z,-3.68
2022-12-15T08:22:27.394Z,-3.70
2022-12-15T08:24:56.994Z,-3.64
2022-12-15T08:27:33.441Z,-3.68
2022-12-15T08:30:11.646Z,-3.68
2022-12-15T08:32:46.062Z,-3.69
2022-12-15T08:35:54.457Z,-3.68
2022-12-15T08:38:09.274Z,-3.70
2022-12-15T08:40:37.548Z,-3.68
2022-12-15T08:43:08.187Z,-3.63
2022-12-15T08:45:36.653Z,-3.64
2022-12-15T08:48:16.645Z,-3.61
2022-12-15T08:50:46.698Z,-3.59
2022-12-15T08:53:30.798Z,-3.57
2022-12-15T08:56:15.896Z,-3.51
2022-12-15T08:58:46.415Z,-3.48
2022-12-15T09:01:22.428Z,-3.45
2022-12-15T09:04:12.596Z,-3.40
2022-12-15T09:06:50.741Z,-3.30
2022-12-15T09:09:22.735Z,-3.28
2022-12-15T09:11:56.065Z,-3.23
2022-12-15T09:14:29.689Z,-3.19
2022-12-15T09:16:58.584Z,-3.18
2022-12-15T09:19:28.292Z,-3.14
2022-12-15T09:22:02.682Z,-3.10
2022-12-15T09:24:35.056Z,-3.12
2022-12-15T09:27:05.086Z,-3.12
2022-12-15T09:29:35.237Z,-3.10
2022-12-15T09:32:08.976Z,-3.09
2022-12-15T09:34:41.059Z,-3.08
2022-12-15T09:37:09.628Z,-3.03
2022-12-15T09:39:39.307Z,-2.92
2022-12-15T09:42:07.965Z,-2.86
2022-12-15T09:44:39.523Z,-2.77
2022-12-15T09:47:18.953Z,-2.66
2022-12-15T09:49:57.782Z,-2.58
2022-12-15T09:52:30.439Z,-2.52
2022-12-15T09:55:02.019Z,-2.44
2022-12-15T09:57:40.063Z,-2.35
2022-12-15T10:00:21.738Z,-2.27
2022-12-15T10:03:19.354Z,-2.21
2022-12-15T10:06:20.037Z,-2.14
2022-12-15T10:08:56.394Z,-2.10
2022-12-15T10:11:38.291Z,-2.16
2022-12-15T10:14:18.601Z,-2.15
2022-12-15T10:16:57.229Z,-2.08
2022-12-15T10:19:35.446Z,-2.00
2022-12-15T10:22:04.304Z,-1.96
2022-12-15T10:25:08.557Z,-1.89
2022-12-15T10:27:55.042Z,-1.81
2022-12-15T10:30:23.851Z,-1.73
2022-12-15T10:33:02.697Z,-1.64
2022-12-15T10:35:33.907Z,-1.62
2022-12-15T10:38:05.551Z,-1.54
2022-12-15T10:40:50.459Z,-1.47
2022-12-15T10:43:29.115Z,-1.44
2022-12-15T10:46:12.179Z,-1.33
2022-12-15T10:48:42.832Z,-1.30
2022-12-15T10:51:20.627Z,-1.19
2022-12-15T10:53:54.637Z,-1.07
2022-12-15T10:56:32.738Z,-0.94
2022-12-15T10:59:05.074Z,-0.84
2022-12-15T11:01:35.984Z,-0.72
2022-12-15T11:04:08.250Z,-0.71
2022-12-15T11:06:39.424Z,-0.64
2022-12-15T11:09:30.054Z,-0.51
2022-12-15T11:12:15.936Z,-0.46
2022-12-15T11:14:47.672Z,-0.36
2022-12-15T11:17:19.368Z,-0.22
2022-12-15T11:20:01.902Z,-0.13
2022-12-15T11:22:41.299Z,-0.09
2022-12-15T11:25:21.896Z,-0.02
2022-12-15T11:27:53.414Z,0.08
2022-12-15T11:30:26.309Z,0.17
2022-12-15T11:32:59.492Z,0.18
2022-12-15T11:35:42.627Z,0.24
2022-12-15T11:38:21.224Z,0.39
2022-12-15T11:40:51.975Z,0.56
2022-12-15T11:43:45.649Z,0.61
2022-12-15T11:46:24.254Z,0.67
2022-12-15T11:49:16.730Z,0.76
2022-12-15T11:51:54.564Z,0.82
2022-12-15T11:54:31.302Z,0.92
2022-12-15T11:57:11.078Z,0.93
2022-12-15T11:59:58.501Z,0.93
2022-12-15T12:03:00.438Z,1.05
2022-12-15T12:05:39.392Z,1.06
2022-12-15T12:08:24.131Z,1.14
2022-12-15T12:11:01.674Z,1.23
2022-12-15T12:13:37.202Z,1.28
2022-12-15T12:16:21.110Z,1.41
2022-12-15T12:18:58.184Z,1.49
2022-12-15T12:21:31.361Z,1.62
2022-12-15T12:24:05.782Z,1.64
2022-12-15T12:26:40.595Z,1.64
2022-12-15T12:29:16.940Z,1.60
2022-12-15T12:32:02.187Z,1.65
2022-12-15T12:35:31.212Z,1.63
2022-12-15T12:37:47.071Z,1.60
2022-12-15T12:40:23.777Z,1.61
2022-12-15T12:42:56.232Z,1.65
2022-12-15T12:45:29.121Z,1.69
2022-12-15T12:48:02.942Z,1.74
2022-12-15T12:50:32.915Z,1.72
2022-12-15T12:53:04.716Z,1.85
2022-12-15T12:55:42.229Z,1.91
2022-12-15T12:58:33.057Z,2.04
2022-12-15T13:01:31.427Z,2.13
2022-12-15T13:04:12.298Z,2.19
2022-12-15T13:07:01.789Z,2.16
2022-12-15T13:09:41.220Z,2.24
2022-12-15T13:12:52.023Z,2.36
2022-12-15T13:15:36.604Z,2.44
2022-12-15T13:18:14.105Z,2.36
2022-12-15T13:20:44.087Z,2.41
2022-12-15T13:23:42.024Z,2.43
2022-12-15T13:26:16.496Z,2.48
2022-12-15T13:28:53.627Z,2.56
2022-12-15T13:31:32.045Z,2.58
2022-12-15T13:34:14.898Z,2.63
2022-12-15T13:36:55.389Z,2.59
2022-12-15T13:39:59.147Z,2.44
2022-12-15T13:42:38.833Z,2.43
2022-12-15T13:45:36.904Z,2.42
2022-12-15T13:48:20.057Z,2.44
2022-12-15T13:50:58.014Z,2.42
2022-12-15T13:53:29.560Z,2.43
2022-12-15T13:56:07.995Z,2.40
2022-12-15T13:58:43.593Z,2.39
2022-12-15T14:01:31.992Z,2.32
2022-12-15T14:04:07.523Z,2.28
2022-12-15T14:06:42.055Z,2.26
2022-12-15T14:09:19.706Z,2.27
2022-12-15T14:11:53.667Z,2.31
2022-12-15T14:14:28.043Z,2.36
2022-12-15T14:17:03.821Z,2.37
2022-12-15T14:19:42.617Z,2.45
2022-12-15T14:22:28.583Z,2.52
2022-12-15T14:25:04.139Z,2.56
2022-12-15T14:27:34.710Z,2.60
2022-12-15T14:30:19.811Z,2.76
2022-12-15T14:32:53.560Z,2.94
2022-12-15T14:35:31.581Z,3.30
2022-12-15T14:38:08.208Z,3.72
2022-12-15T14:40:40.398Z,4.37
2022-12-15T14:43:14.602Z,4.07
2022-12-15T14:45:43.333Z,3.15
2022-12-15T14:48:42.591Z,2.65
2022-12-15T14:51:14.755Z,2.34
2022-12-15T14:53:45.980Z,2.17
2022-12-15T14:56:30.101Z,2.06
2022-12-15T14:59:04.503Z,1.98
2022-12-15T15:01:40.453Z,1.93
2022-12-15T15:04:26.963Z,1.89
2022-12-15T15:06:57.536Z,1.86
2022-12-15T15:09:28.173Z,1.84
2022-12-15T15:12:01.783Z,1.81
2022-12-15T15:14:34.484Z,1.73
2022-12-15T15:17:12.340Z,1.70
2022-12-15T15:19:49.965Z,1.65
2022-12-15T15:22:32.765Z,1.64
2022-12-15T15:25:02.996Z,1.61
2022-12-15T15:27:41.256Z,1.58
2022-12-15T15:30:24.064Z,1.49
2022-12-15T15:32:55.766Z,1.38
2022-12-15T15:35:32.626Z,1.25
2022-12-15T15:38:06.297Z,1.22
2022-12-15T15:40:38.534Z,1.22
2022-12-15T15:43:12.832Z,1.25
2022-12-15T15:45:45.094Z,1.23
2022-12-15T15:48:20.663Z,1.20
2022-12-15T15:50:50.650Z,1.08
2022-12-15T15:53:22.828Z,0.97
2022-12-15T15:55:54.492Z,0.89
2022-12-15T15:58:23.435Z,0.85
2022-12-15T16:00:53.996Z,0.80
2022-12-15T16:03:22.967Z,0.76
2022-12-15T16:05:53.411Z,0.71
2022-12-15T16:08:28.479Z,0.63
2022-12-15T16:10:57.478Z,0.54
2022-12-15T16:13:26.601Z,0.48
2022-12-15T16:15:56.261Z,0.44
2022-12-15T16:18:25.049Z,0.38
2022-12-15T16:20:55.411Z,0.33
2022-12-15T16:23:28.027Z,0.28
2022-12-15T16:25:58.888Z,0.25
2022-12-15T16:28:29.751Z,0.21
2022-12-15T16:30:59.966Z,0.21
2022-12-15T16:33:29.009Z,0.23
2022-12-15T16:35:59.793Z,0.22
2022-12-15T16:38:31.614Z,0.20
2022-12-15T16:44:22.397Z,0.09
2022-12-15T16:46:51.588Z,0.03
2022-12-15T16:49:20.773Z,-0.05
2022-12-15T16:51:54.262Z,-0.12
2022-12-15T16:54:25.676Z,-0.21
2022-12-15T16:56:55.190Z,-0.26
2022-12-15T16:59:35.696Z,-0.30
2022-12-15T17:02:28.367Z,-0.32
2022-12-15T17:04:57.807Z,-0.32
2022-12-15T17:07:29.829Z,-0.38
2022-12-15T17:09:58.568Z,-0.32
2022-12-15T17:12:27.333Z,-0.25
2022-12-15T17:14:57.755Z,-0.19
2022-12-15T17:17:28.539Z,-0.15
2022-12-15T17:22:49.292Z,-0.13
2022-12-15T17:25:37.535Z,-0.12
2022-12-15T17:28:16.883Z,-0.17
2022-12-15T17:30:45.889Z,-0.15
2022-12-15T17:33:23.572Z,-0.12
2022-12-15T17:35:54.445Z,-0.12
2022-12-15T17:38:25.891Z,-0.13
2022-12-15T17:40:55.249Z,-0.14
2022-12-15T17:43:32.083Z,-0.17
2022-12-15T17:46:05.290Z,-0.20
2022-12-15T17:48:34.688Z,-0.22
2022-12-15T17:51:04.063Z,-0.28
2022-12-15T17:53:34.545Z,-0.26
2022-12-15T17:56:03.806Z,-0.32
2022-12-15T17:58:32.452Z,-0.31
2022-12-15T18:01:02.242Z,-0.32
2022-12-15T18:03:31.742Z,-0.31
2022-12-15T18:06:02.245Z,-0.32
2022-12-15T18:08:36.875Z,-0.30
2022-12-15T18:11:08.093Z,-0.23
2022-12-15T18:13:37.177Z,-0.20
2022-12-15T18:16:12.192Z,-0.21
2022-12-15T18:18:42.182Z,-0.21
2022-12-15T18:21:15.898Z,-0.21
2022-12-15T18:23:47.898Z,-0.26
2022-12-15T18:26:17.476Z,-0.26
2022-12-15T18:28:46.192Z,-0.23
2022-12-15T18:31:21.471Z,-0.26
2022-12-15T18:33:50.901Z,-0.26
2022-12-15T18:36:21.861Z,-0.31
2022-12-15T18:38:53.222Z,-0.33
2022-12-15T18:41:25.395Z,-0.38
2022-12-15T18:43:56.613Z,-0.42
2022-12-15T18:46:25.669Z,-0.43
2022-12-15T18:48:56.450Z,-0.41
2022-12-15T18:51:25.022Z,-0.42
2022-12-15T18:53:55.972Z,-0.42
2022-12-15T18:56:25.661Z,-0.46
2022-12-15T18:58:55.244Z,-0.47
2022-12-15T19:01:23.960Z,-0.53
2022-12-15T19:03:54.975Z,-0.54
2022-12-15T19:06:35.234Z,-0.58
2022-12-15T19:09:09.280Z,-0.61
2022-12-15T19:11:38.099Z,-0.62
2022-12-15T19:14:36.124Z,-0.63
2022-12-15T19:17:24.720Z,-0.65
2022-12-15T19:20:11.078Z,-0.66
2022-12-15T19:22:41.017Z,-0.66
2022-12-15T19:25:23.333Z,-0.68
2022-12-15T19:27:59.247Z,-0.67
2022-12-15T19:30:30.119Z,-0.64
2022-12-15T19:32:58.887Z,-0.69
2022-12-15T19:35:29.540Z,-0.71
2022-12-15T19:38:00.811Z,-0.73
2022-12-15T19:40:32.845Z,-0.72
2022-12-15T19:43:01.970Z,-0.77
2022-12-15T19:45:32.334Z,-0.79
2022-12-15T19:48:01.650Z,-0.79
2022-12-15T19:50:41.788Z,-0.76
2022-12-15T19:53:17.627Z,-0.75
2022-12-15T19:55:48.895Z,-0.77
2022-12-15T19:58:28.640Z,-0.80
2022-12-15T20:01:00.084Z,-0.81
2022-12-15T20:03:30.492Z,-0.83
2022-12-15T20:06:00.892Z,-0.83
2022-12-15T20:08:34.992Z,-0.82
2022-12-15T20:11:11.120Z,-0.84
2022-12-15T20:13:39.819Z,-0.86
2022-12-15T20:16:09.588Z,-0.88
2022-12-15T20:18:38.290Z,-0.90
2022-12-15T20:21:07.978Z,-0.93
2022-12-15T20:23:49.959Z,-0.95
2022-12-15T20:26:21.687Z,-0.98
2022-12-15T20:28:50.508Z,-1.00
2022-12-15T20:31:23.949Z,-1.00
2022-12-15T20:33:53.980Z,-0.98
2022-12-15T20:36:25.714Z,-0.98
2022-12-15T20:38:55.532Z,-1.00
2022-12-15T20:41:27.799Z,-1.03
2022-12-15T20:43:58.076Z,-1.03
2022-12-15T20:46:28.917Z,-1.04
2022-12-15T20:48:58.007Z,-1.06
2022-12-15T20:51:30.618Z,-1.06
2022-12-15T20:54:02.511Z,-1.05
2022-12-15T20:56:32.954Z,-1.08
2022-12-15T20:59:01.261Z,-1.10
2022-12-15T21:01:32.726Z,-1.12
2022-12-15T21:04:03.742Z,-1.14
2022-12-15T21:06:34.442Z,-1.14
2022-12-15T21:09:05.066Z,-1.14
2022-12-15T21:11:35.092Z,-1.14
2022-12-15T21:14:05.189Z,-1.11
2022-12-15T21:16:34.860Z,-1.13
2022-12-15T21:19:20.181Z,-1.14
2022-12-15T21:21:54.924Z,-1.13
2022-12-15T21:24:26.343Z,-1.16
2022-12-15T21:26:56.570Z,-1.19
2022-12-15T21:29:26.923Z,-1.21
2022-12-15T21:31:55.927Z,-1.22
2022-12-15T21:34:25.342Z,-1.23
2022-12-15T21:36:55.849Z,-1.26
2022-12-15T21:39:29.787Z,-1.28
2022-12-15T21:42:03.575Z,-1.34
2022-12-15T21:44:32.103Z,-1.41
2022-12-15T21:47:00.779Z,-1.44
2022-12-15T21:49:29.322Z,-1.47
2022-12-15T21:51:59.827Z,-1.54
2022-12-15T21:54:32.551Z,-1.58
2022-12-15T21:57:04.103Z,-1.61
2022-12-15T21:59:42.313Z,-1.62
2022-12-15T22:02:25.598Z,-1.63
2022-12-15T22:07:43.062Z,-1.62
2022-12-15T22:10:12.222Z,-1.61
2022-12-15T22:12:45.731Z,-1.60
2022-12-15T22:15:16.645Z,-1.61
2022-12-15T22:17:45.642Z,-1.55
2022-12-15T22:20:19.931Z,-1.55
2022-12-15T22:22:49.302Z,-1.55
2022-12-15T22:25:20.756Z,-1.55
2022-12-15T22:27:51.741Z,-1.55
2022-12-15T22:30:22.793Z,-1.55
2022-12-15T22:32:51.583Z,-1.58
2022-12-15T22:35:25.050Z,-1.59
2022-12-15T22:37:56.250Z,-1.63
2022-12-15T22:40:25.636Z,-1.67
2022-12-15T22:42:59.674Z,-1.68
2022-12-15T22:45:28.393Z,-1.65
2022-12-15T22:47:56.769Z,-1.68
2022-12-15T22:50:27.437Z,-1.67
2022-12-15T22:52:56.158Z,-1.68
2022-12-15T22:55:25.523Z,-1.69
2022-12-15T22:58:00.961Z,-1.69
2022-12-15T23:00:29.709Z,-1.69
2022-12-15T23:03:00.531Z,-1.69
2022-12-15T23:05:29.409Z,-1.70
2022-12-15T23:08:00.512Z,-1.71
2022-12-15T23:10:46.243Z,-1.71
2022-12-15T23:13:16.294Z,-1.73
2022-12-15T23:16:01.439Z,-1.76
2022-12-15T23:18:30.015Z,-1.78
2022-12-15T23:20:58.673Z,-1.74
2022-12-15T23:23:28.526Z,-1.75
2022-12-15T23:25:56.857Z,-1.77
2022-12-15T23:28:27.757Z,-1.83
2022-12-15T23:30:58.598Z,-1.84
2022-12-15T23:33:29.707Z,-1.78
2022-12-15T23:36:00.622Z,-1.80
2022-12-15T23:38:30.032Z,-1.85
2022-12-15T23:40:58.661Z,-1.87
2022-12-15T23:43:32.249Z,-1.89
2022-12-15T23:46:03.510Z,-1.92
2022-12-15T23:48:35.073Z,-1.95
2022-12-15T23:51:08.699Z,-1.98
2022-12-15T23:53:41.193Z,-1.96
2022-12-15T23:56:12.369Z,-1.91
2022-12-15T23:58:43.850Z,-1.87
